sensor_id;sensor_type;location;lat;lon;timestamp;P1;durP1;ratioP1;P2;durP2;ratioP2
78563;SDS011;67856;47.754;19.088;2023-03-02T00:00:26;9.32;;;5.65;;
78563;SDS011;67856;47.754;19.088;2023-03-02T00:03:28;9.82;;;5.75;;
78563;SDS011;67856;47.754;19.088;2023-03-02T00:06:31;8.87;;;5.63;;
78563;SDS011;67856;47.754;19.088;2023-03-02T00:09:35;9.83;;;5.90;;
78563;SDS011;67856;47.754;19.088;2023-03-02T00:12:38;9.30;;;6.00;;
78563;SDS011;67856;47.754;19.088;2023-03-02T00:15:41;11.57;;;6.40;;
78563;SDS011;67856;47.754;19.088;2023-03-02T00:18:43;13.18;;;6.57;;
78563;SDS011;67856;47.754;19.088;2023-03-02T00:21:46;11.83;;;6.53;;
78563;SDS011;67856;47.754;19.088;2023-03-02T00:24:48;9.97;;;5.97;;
78563;SDS011;67856;47.754;19.088;2023-03-02T00:27:50;12.35;;;6.50;;
78563;SDS011;67856;47.754;19.088;2023-03-02T00:30:53;9.02;;;5.50;;
78563;SDS011;67856;47.754;19.088;2023-03-02T00:33:55;10.00;;;5.93;;
78563;SDS011;67856;47.754;19.088;2023-03-02T00:36:58;10.93;;;5.97;;
78563;SDS011;67856;47.754;19.088;2023-03-02T00:40:00;11.20;;;6.70;;
78563;SDS011;67856;47.754;19.088;2023-03-02T00:43:04;15.38;;;7.43;;
78563;SDS011;67856;47.754;19.088;2023-03-02T00:46:16;10.45;;;6.40;;
78563;SDS011;67856;47.754;19.088;2023-03-02T00:49:21;10.00;;;5.78;;
78563;SDS011;67856;47.754;19.088;2023-03-02T00:52:23;8.67;;;5.23;;
78563;SDS011;67856;47.754;19.088;2023-03-02T00:55:25;8.67;;;5.30;;
78563;SDS011;67856;47.754;19.088;2023-03-02T00:58:28;8.00;;;5.25;;
78563;SDS011;67856;47.754;19.088;2023-03-02T01:01:32;11.00;;;5.72;;
78563;SDS011;67856;47.754;19.088;2023-03-02T01:04:35;9.07;;;5.90;;
78563;SDS011;67856;47.754;19.088;2023-03-02T01:07:40;8.27;;;5.00;;
78563;SDS011;67856;47.754;19.088;2023-03-02T01:10:42;7.93;;;4.80;;
78563;SDS011;67856;47.754;19.088;2023-03-02T01:13:45;7.68;;;4.88;;
78563;SDS011;67856;47.754;19.088;2023-03-02T01:16:47;8.48;;;5.13;;
78563;SDS011;67856;47.754;19.088;2023-03-02T01:19:50;9.13;;;4.93;;
78563;SDS011;67856;47.754;19.088;2023-03-02T01:22:54;9.30;;;5.30;;
78563;SDS011;67856;47.754;19.088;2023-03-02T01:25:56;8.60;;;4.83;;
78563;SDS011;67856;47.754;19.088;2023-03-02T01:28:59;8.77;;;5.18;;
78563;SDS011;67856;47.754;19.088;2023-03-02T01:32:01;8.68;;;4.78;;
78563;SDS011;67856;47.754;19.088;2023-03-02T01:35:04;8.45;;;5.05;;
78563;SDS011;67856;47.754;19.088;2023-03-02T01:38:07;9.23;;;5.30;;
78563;SDS011;67856;47.754;19.088;2023-03-02T01:41:09;7.87;;;4.70;;
78563;SDS011;67856;47.754;19.088;2023-03-02T01:47:40;6.85;;;4.25;;
78563;SDS011;67856;47.754;19.088;2023-03-02T01:50:52;7.60;;;4.28;;
78563;SDS011;67856;47.754;19.088;2023-03-02T01:53:58;8.10;;;4.43;;
78563;SDS011;67856;47.754;19.088;2023-03-02T01:57:03;7.27;;;4.40;;
78563;SDS011;67856;47.754;19.088;2023-03-02T02:00:08;6.85;;;4.15;;
78563;SDS011;67856;47.754;19.088;2023-03-02T02:03:16;6.97;;;4.30;;
78563;SDS011;67856;47.754;19.088;2023-03-02T02:06:29;7.70;;;4.53;;
78563;SDS011;67856;47.754;19.088;2023-03-02T02:09:47;8.03;;;4.47;;
78563;SDS011;67856;47.754;19.088;2023-03-02T02:12:51;6.70;;;4.23;;
78563;SDS011;67856;47.754;19.088;2023-03-02T02:15:54;6.75;;;4.45;;
78563;SDS011;67856;47.754;19.088;2023-03-02T02:18:56;7.43;;;4.28;;
78563;SDS011;67856;47.754;19.088;2023-03-02T02:21:59;7.25;;;4.20;;
78563;SDS011;67856;47.754;19.088;2023-03-02T02:25:02;7.03;;;4.30;;
78563;SDS011;67856;47.754;19.088;2023-03-02T02:28:10;6.93;;;4.33;;
78563;SDS011;67856;47.754;19.088;2023-03-02T02:34:31;6.80;;;4.10;;
78563;SDS011;67856;47.754;19.088;2023-03-02T02:37:38;7.30;;;4.40;;
78563;SDS011;67856;47.754;19.088;2023-03-02T02:40:48;6.57;;;4.00;;
78563;SDS011;67856;47.754;19.088;2023-03-02T02:43:56;7.03;;;4.17;;
78563;SDS011;67856;47.754;19.088;2023-03-02T02:46:58;6.57;;;4.05;;
78563;SDS011;67856;47.754;19.088;2023-03-02T02:50:01;5.68;;;3.70;;
78563;SDS011;67856;47.754;19.088;2023-03-02T02:53:23;6.35;;;3.97;;
78563;SDS011;67856;47.754;19.088;2023-03-02T02:56:29;6.70;;;4.00;;
78563;SDS011;67856;47.754;19.088;2023-03-02T02:59:35;7.87;;;4.57;;
78563;SDS011;67856;47.754;19.088;2023-03-02T03:02:42;6.85;;;3.80;;
78563;SDS011;67856;47.754;19.088;2023-03-02T03:05:45;6.40;;;3.85;;
78563;SDS011;67856;47.754;19.088;2023-03-02T03:08:53;7.57;;;4.18;;
78563;SDS011;67856;47.754;19.088;2023-03-02T03:15:15;7.30;;;3.70;;
78563;SDS011;67856;47.754;19.088;2023-03-02T03:18:21;7.07;;;3.90;;
78563;SDS011;67856;47.754;19.088;2023-03-02T03:21:25;6.22;;;3.75;;
78563;SDS011;67856;47.754;19.088;2023-03-02T03:24:28;6.32;;;4.03;;
78563;SDS011;67856;47.754;19.088;2023-03-02T03:27:32;5.57;;;3.63;;
78563;SDS011;67856;47.754;19.088;2023-03-02T03:30:36;6.47;;;3.87;;
78563;SDS011;67856;47.754;19.088;2023-03-02T03:33:39;6.38;;;4.03;;
78563;SDS011;67856;47.754;19.088;2023-03-02T03:36:42;7.07;;;4.00;;
78563;SDS011;67856;47.754;19.088;2023-03-02T03:39:45;6.97;;;3.83;;
78563;SDS011;67856;47.754;19.088;2023-03-02T03:42:47;6.20;;;3.90;;
78563;SDS011;67856;47.754;19.088;2023-03-02T03:45:50;6.07;;;3.60;;
78563;SDS011;67856;47.754;19.088;2023-03-02T03:48:53;5.82;;;3.85;;
78563;SDS011;67856;47.754;19.088;2023-03-02T03:51:56;5.45;;;3.50;;
78563;SDS011;67856;47.754;19.088;2023-03-02T03:54:59;6.13;;;3.45;;
78563;SDS011;67856;47.754;19.088;2023-03-02T03:58:03;6.30;;;3.43;;
78563;SDS011;67856;47.754;19.088;2023-03-02T04:01:05;5.63;;;3.70;;
78563;SDS011;67856;47.754;19.088;2023-03-02T04:04:09;6.72;;;3.88;;
78563;SDS011;67856;47.754;19.088;2023-03-02T04:07:14;5.38;;;3.55;;
78563;SDS011;67856;47.754;19.088;2023-03-02T04:10:18;7.10;;;3.83;;
78563;SDS011;67856;47.754;19.088;2023-03-02T04:13:21;6.37;;;3.70;;
78563;SDS011;67856;47.754;19.088;2023-03-02T04:16:24;4.97;;;3.37;;
78563;SDS011;67856;47.754;19.088;2023-03-02T04:19:26;5.82;;;3.60;;
78563;SDS011;67856;47.754;19.088;2023-03-02T04:22:31;5.05;;;3.40;;
78563;SDS011;67856;47.754;19.088;2023-03-02T04:25:34;5.57;;;3.15;;
78563;SDS011;67856;47.754;19.088;2023-03-02T04:28:42;5.73;;;3.30;;
78563;SDS011;67856;47.754;19.088;2023-03-02T04:31:44;5.63;;;3.57;;
78563;SDS011;67856;47.754;19.088;2023-03-02T04:34:47;4.93;;;3.15;;
78563;SDS011;67856;47.754;19.088;2023-03-02T04:37:49;5.22;;;2.92;;
78563;SDS011;67856;47.754;19.088;2023-03-02T04:40:52;6.03;;;3.38;;
78563;SDS011;67856;47.754;19.088;2023-03-02T04:43:54;5.03;;;3.30;;
78563;SDS011;67856;47.754;19.088;2023-03-02T04:46:57;5.60;;;3.23;;
78563;SDS011;67856;47.754;19.088;2023-03-02T04:50:00;4.28;;;3.17;;
78563;SDS011;67856;47.754;19.088;2023-03-02T04:53:02;5.40;;;3.20;;
78563;SDS011;67856;47.754;19.088;2023-03-02T04:56:05;5.80;;;3.40;;
78563;SDS011;67856;47.754;19.088;2023-03-02T04:59:07;4.50;;;3.13;;
78563;SDS011;67856;47.754;19.088;2023-03-02T05:02:10;4.60;;;2.90;;
78563;SDS011;67856;47.754;19.088;2023-03-02T05:05:17;4.05;;;3.05;;
78563;SDS011;67856;47.754;19.088;2023-03-02T05:08:21;6.40;;;3.28;;
78563;SDS011;67856;47.754;19.088;2023-03-02T05:11:25;5.85;;;3.65;;
78563;SDS011;67856;47.754;19.088;2023-03-02T05:14:27;7.63;;;3.63;;
78563;SDS011;67856;47.754;19.088;2023-03-02T05:17:30;7.47;;;4.17;;
78563;SDS011;67856;47.754;19.088;2023-03-02T05:20:33;9.82;;;4.00;;
78563;SDS011;67856;47.754;19.088;2023-03-02T05:23:35;12.10;;;3.88;;
78563;SDS011;67856;47.754;19.088;2023-03-02T05:26:38;11.48;;;3.80;;
78563;SDS011;67856;47.754;19.088;2023-03-02T05:29:41;8.10;;;3.70;;
78563;SDS011;67856;47.754;19.088;2023-03-02T05:32:43;7.93;;;3.90;;
78563;SDS011;67856;47.754;19.088;2023-03-02T05:35:46;9.15;;;3.80;;
78563;SDS011;67856;47.754;19.088;2023-03-02T05:38:49;6.88;;;3.60;;
78563;SDS011;67856;47.754;19.088;2023-03-02T05:41:52;10.05;;;4.18;;
78563;SDS011;67856;47.754;19.088;2023-03-02T05:44:54;8.30;;;3.53;;
78563;SDS011;67856;47.754;19.088;2023-03-02T05:47:57;6.60;;;3.80;;
78563;SDS011;67856;47.754;19.088;2023-03-02T05:50:59;9.77;;;3.50;;
78563;SDS011;67856;47.754;19.088;2023-03-02T05:54:01;7.57;;;3.60;;
78563;SDS011;67856;47.754;19.088;2023-03-02T05:57:04;9.13;;;3.80;;
78563;SDS011;67856;47.754;19.088;2023-03-02T06:00:09;7.50;;;3.90;;
78563;SDS011;67856;47.754;19.088;2023-03-02T06:03:13;10.23;;;3.73;;
78563;SDS011;67856;47.754;19.088;2023-03-02T06:06:16;7.47;;;3.55;;
78563;SDS011;67856;47.754;19.088;2023-03-02T06:09:18;8.35;;;3.97;;
78563;SDS011;67856;47.754;19.088;2023-03-02T06:12:21;7.05;;;3.50;;
78563;SDS011;67856;47.754;19.088;2023-03-02T06:15:23;8.27;;;3.67;;
78563;SDS011;67856;47.754;19.088;2023-03-02T06:18:26;5.97;;;3.50;;
78563;SDS011;67856;47.754;19.088;2023-03-02T06:21:29;6.63;;;3.90;;
78563;SDS011;67856;47.754;19.088;2023-03-02T06:24:31;6.78;;;3.83;;
78563;SDS011;67856;47.754;19.088;2023-03-02T06:27:37;9.27;;;4.60;;
78563;SDS011;67856;47.754;19.088;2023-03-02T06:30:40;9.53;;;4.47;;
78563;SDS011;67856;47.754;19.088;2023-03-02T06:33:42;11.93;;;4.13;;
78563;SDS011;67856;47.754;19.088;2023-03-02T06:36:48;11.18;;;4.78;;
78563;SDS011;67856;47.754;19.088;2023-03-02T06:39:50;11.77;;;4.40;;
78563;SDS011;67856;47.754;19.088;2023-03-02T06:42:53;9.10;;;4.00;;
78563;SDS011;67856;47.754;19.088;2023-03-02T06:45:55;7.33;;;4.20;;
78563;SDS011;67856;47.754;19.088;2023-03-02T06:48:58;11.90;;;5.17;;
78563;SDS011;67856;47.754;19.088;2023-03-02T06:52:00;12.90;;;4.53;;
78563;SDS011;67856;47.754;19.088;2023-03-02T06:55:03;12.65;;;4.38;;
78563;SDS011;67856;47.754;19.088;2023-03-02T06:58:06;12.48;;;4.70;;
78563;SDS011;67856;47.754;19.088;2023-03-02T07:01:09;13.40;;;4.67;;
78563;SDS011;67856;47.754;19.088;2023-03-02T07:04:14;10.50;;;4.60;;
78563;SDS011;67856;47.754;19.088;2023-03-02T07:07:18;14.02;;;4.40;;
78563;SDS011;67856;47.754;19.088;2023-03-02T07:10:20;12.77;;;4.50;;
78563;SDS011;67856;47.754;19.088;2023-03-02T07:13:23;10.85;;;4.57;;
78563;SDS011;67856;47.754;19.088;2023-03-02T07:16:26;16.83;;;5.00;;
78563;SDS011;67856;47.754;19.088;2023-03-02T07:19:30;9.20;;;4.50;;
78563;SDS011;67856;47.754;19.088;2023-03-02T07:22:32;14.77;;;4.50;;
78563;SDS011;67856;47.754;19.088;2023-03-02T07:25:35;13.30;;;4.72;;
78563;SDS011;67856;47.754;19.088;2023-03-02T07:28:38;13.13;;;4.40;;
78563;SDS011;67856;47.754;19.088;2023-03-02T07:31:42;10.33;;;4.83;;
78563;SDS011;67856;47.754;19.088;2023-03-02T07:34:45;18.83;;;5.30;;
78563;SDS011;67856;47.754;19.088;2023-03-02T07:37:47;11.85;;;4.28;;
78563;SDS011;67856;47.754;19.088;2023-03-02T07:40:50;13.38;;;4.28;;
78563;SDS011;67856;47.754;19.088;2023-03-02T07:43:52;9.60;;;4.50;;
78563;SDS011;67856;47.754;19.088;2023-03-02T07:47:04;14.27;;;4.67;;
78563;SDS011;67856;47.754;19.088;2023-03-02T07:50:07;15.93;;;4.17;;
78563;SDS011;67856;47.754;19.088;2023-03-02T07:53:10;11.77;;;4.40;;
78563;SDS011;67856;47.754;19.088;2023-03-02T07:56:13;10.35;;;4.05;;
78563;SDS011;67856;47.754;19.088;2023-03-02T07:59:15;12.82;;;4.30;;
78563;SDS011;67856;47.754;19.088;2023-03-02T08:02:18;11.70;;;4.83;;
78563;SDS011;67856;47.754;19.088;2023-03-02T08:05:21;10.00;;;4.30;;
78563;SDS011;67856;47.754;19.088;2023-03-02T08:08:23;11.27;;;4.60;;
78563;SDS011;67856;47.754;19.088;2023-03-02T08:11:26;14.23;;;4.00;;
78563;SDS011;67856;47.754;19.088;2023-03-02T08:14:28;17.92;;;4.50;;
78563;SDS011;67856;47.754;19.088;2023-03-02T08:17:31;10.07;;;4.63;;
78563;SDS011;67856;47.754;19.088;2023-03-02T08:20:33;8.97;;;4.57;;
78563;SDS011;67856;47.754;19.088;2023-03-02T08:23:36;11.60;;;4.40;;
78563;SDS011;67856;47.754;19.088;2023-03-02T08:26:39;11.90;;;4.30;;
78563;SDS011;67856;47.754;19.088;2023-03-02T08:29:41;10.63;;;4.55;;
78563;SDS011;67856;47.754;19.088;2023-03-02T08:32:43;13.20;;;4.50;;
78563;SDS011;67856;47.754;19.088;2023-03-02T08:35:54;64.00;;;7.50;;
78563;SDS011;67856;47.754;19.088;2023-03-02T08:38:58;37.55;;;7.13;;
78563;SDS011;67856;47.754;19.088;2023-03-02T08:42:00;49.63;;;6.70;;
78563;SDS011;67856;47.754;19.088;2023-03-02T08:45:04;48.60;;;7.00;;
78563;SDS011;67856;47.754;19.088;2023-03-02T08:48:07;33.83;;;6.30;;
78563;SDS011;67856;47.754;19.088;2023-03-02T08:51:14;44.90;;;6.57;;
78563;SDS011;67856;47.754;19.088;2023-03-02T08:54:18;31.20;;;6.40;;
78563;SDS011;67856;47.754;19.088;2023-03-02T08:57:21;38.30;;;6.15;;
78563;SDS011;67856;47.754;19.088;2023-03-02T09:00:24;36.97;;;6.68;;
78563;SDS011;67856;47.754;19.088;2023-03-02T09:03:26;32.20;;;5.90;;
78563;SDS011;67856;47.754;19.088;2023-03-02T09:06:30;33.23;;;6.43;;
78563;SDS011;67856;47.754;19.088;2023-03-02T09:09:34;29.23;;;6.43;;
78563;SDS011;67856;47.754;19.088;2023-03-02T09:12:36;29.65;;;6.05;;
78563;SDS011;67856;47.754;19.088;2023-03-02T09:15:39;18.67;;;6.22;;
78563;SDS011;67856;47.754;19.088;2023-03-02T09:18:41;23.93;;;6.07;;
78563;SDS011;67856;47.754;19.088;2023-03-02T09:21:44;31.40;;;7.07;;
78563;SDS011;67856;47.754;19.088;2023-03-02T09:24:46;29.55;;;7.15;;
78563;SDS011;67856;47.754;19.088;2023-03-02T09:27:49;29.13;;;6.28;;
78563;SDS011;67856;47.754;19.088;2023-03-02T09:30:52;26.48;;;6.47;;
78563;SDS011;67856;47.754;19.088;2023-03-02T09:33:55;28.17;;;6.20;;
78563;SDS011;67856;47.754;19.088;2023-03-02T09:36:58;24.07;;;6.03;;
78563;SDS011;67856;47.754;19.088;2023-03-02T09:40:04;25.60;;;5.55;;
78563;SDS011;67856;47.754;19.088;2023-03-02T09:43:14;22.55;;;5.72;;
78563;SDS011;67856;47.754;19.088;2023-03-02T09:46:41;21.55;;;5.30;;
78563;SDS011;67856;47.754;19.088;2023-03-02T09:56:45;18.17;;;5.60;;
78563;SDS011;67856;47.754;19.088;2023-03-02T09:59:53;22.17;;;5.45;;
78563;SDS011;67856;47.754;19.088;2023-03-02T10:03:24;18.40;;;4.80;;
78563;SDS011;67856;47.754;19.088;2023-03-02T10:06:32;22.17;;;5.80;;
78563;SDS011;67856;47.754;19.088;2023-03-02T10:09:35;16.07;;;5.70;;
78563;SDS011;67856;47.754;19.088;2023-03-02T10:18:52;15.73;;;5.05;;
78563;SDS011;67856;47.754;19.088;2023-03-02T10:22:12;13.03;;;5.10;;
78563;SDS011;67856;47.754;19.088;2023-03-02T10:25:53;14.47;;;4.70;;
78563;SDS011;67856;47.754;19.088;2023-03-02T10:32:23;13.50;;;4.90;;
78563;SDS011;67856;47.754;19.088;2023-03-02T10:35:28;16.23;;;5.32;;
78563;SDS011;67856;47.754;19.088;2023-03-02T10:38:32;17.70;;;5.20;;
78563;SDS011;67856;47.754;19.088;2023-03-02T10:41:37;18.53;;;5.33;;
78563;SDS011;67856;47.754;19.088;2023-03-02T10:44:44;18.98;;;5.15;;
78563;SDS011;67856;47.754;19.088;2023-03-02T10:47:58;24.25;;;5.50;;
78563;SDS011;67856;47.754;19.088;2023-03-02T10:51:02;23.08;;;5.25;;
78563;SDS011;67856;47.754;19.088;2023-03-02T10:57:32;14.93;;;5.00;;
78563;SDS011;67856;47.754;19.088;2023-03-02T11:00:37;16.92;;;5.28;;
78563;SDS011;67856;47.754;19.088;2023-03-02T11:03:40;20.05;;;5.43;;
78563;SDS011;67856;47.754;19.088;2023-03-02T11:07:05;18.75;;;4.90;;
78563;SDS011;67856;47.754;19.088;2023-03-02T11:10:16;18.70;;;4.90;;
78563;SDS011;67856;47.754;19.088;2023-03-02T11:13:24;18.47;;;6.13;;
78563;SDS011;67856;47.754;19.088;2023-03-02T11:16:30;15.20;;;4.80;;
78563;SDS011;67856;47.754;19.088;2023-03-02T11:19:36;16.40;;;4.85;;
78563;SDS011;67856;47.754;19.088;2023-03-02T11:22:44;19.60;;;5.40;;
78563;SDS011;67856;47.754;19.088;2023-03-02T11:25:52;20.90;;;4.93;;
78563;SDS011;67856;47.754;19.088;2023-03-02T11:32:05;18.05;;;4.53;;
78563;SDS011;67856;47.754;19.088;2023-03-02T11:35:18;18.15;;;5.53;;
78563;SDS011;67856;47.754;19.088;2023-03-02T11:41:31;14.90;;;4.87;;
78563;SDS011;67856;47.754;19.088;2023-03-02T11:44:35;16.77;;;5.10;;
78563;SDS011;67856;47.754;19.088;2023-03-02T11:47:37;19.35;;;4.90;;
78563;SDS011;67856;47.754;19.088;2023-03-02T11:50:58;17.42;;;5.13;;
78563;SDS011;67856;47.754;19.088;2023-03-02T11:54:26;13.98;;;4.82;;
78563;SDS011;67856;47.754;19.088;2023-03-02T11:57:45;18.33;;;4.47;;
78563;SDS011;67856;47.754;19.088;2023-03-02T12:00:52;19.07;;;5.80;;
78563;SDS011;67856;47.754;19.088;2023-03-02T12:04:05;17.17;;;4.60;;
78563;SDS011;67856;47.754;19.088;2023-03-02T12:07:19;17.60;;;4.68;;
78563;SDS011;67856;47.754;19.088;2023-03-02T12:13:36;16.67;;;4.90;;
78563;SDS011;67856;47.754;19.088;2023-03-02T12:16:40;16.37;;;5.20;;
78563;SDS011;67856;47.754;19.088;2023-03-02T12:19:43;19.77;;;4.72;;
78563;SDS011;67856;47.754;19.088;2023-03-02T12:22:46;28.80;;;5.60;;
78563;SDS011;67856;47.754;19.088;2023-03-02T12:25:48;25.80;;;5.60;;
78563;SDS011;67856;47.754;19.088;2023-03-02T12:32:27;15.13;;;4.77;;
78563;SDS011;67856;47.754;19.088;2023-03-02T12:35:31;15.40;;;4.55;;
78563;SDS011;67856;47.754;19.088;2023-03-02T12:38:42;17.20;;;5.20;;
78563;SDS011;67856;47.754;19.088;2023-03-02T12:52:44;16.13;;;4.65;;
78563;SDS011;67856;47.754;19.088;2023-03-02T12:56:00;18.98;;;4.45;;
78563;SDS011;67856;47.754;19.088;2023-03-02T12:59:03;16.42;;;4.75;;
78563;SDS011;67856;47.754;19.088;2023-03-02T13:05:22;16.13;;;4.90;;
78563;SDS011;67856;47.754;19.088;2023-03-02T13:08:29;16.02;;;4.57;;
78563;SDS011;67856;47.754;19.088;2023-03-02T13:11:33;13.32;;;4.55;;
78563;SDS011;67856;47.754;19.088;2023-03-02T13:14:36;12.63;;;4.20;;
78563;SDS011;67856;47.754;19.088;2023-03-02T13:17:42;19.90;;;4.60;;
78563;SDS011;67856;47.754;19.088;2023-03-02T13:20:45;14.43;;;4.50;;
78563;SDS011;67856;47.754;19.088;2023-03-02T13:23:48;16.13;;;4.55;;
78563;SDS011;67856;47.754;19.088;2023-03-02T13:26:54;18.42;;;4.75;;
78563;SDS011;67856;47.754;19.088;2023-03-02T13:30:06;15.00;;;4.63;;
78563;SDS011;67856;47.754;19.088;2023-03-02T13:33:19;21.07;;;4.27;;
78563;SDS011;67856;47.754;19.088;2023-03-02T13:36:27;13.87;;;4.80;;
78563;SDS011;67856;47.754;19.088;2023-03-02T13:39:31;20.25;;;4.80;;
78563;SDS011;67856;47.754;19.088;2023-03-02T13:42:37;14.68;;;4.43;;
78563;SDS011;67856;47.754;19.088;2023-03-02T13:45:49;18.80;;;4.70;;
78563;SDS011;67856;47.754;19.088;2023-03-02T13:48:57;13.73;;;5.27;;
78563;SDS011;67856;47.754;19.088;2023-03-02T13:55:29;23.73;;;4.97;;
78563;SDS011;67856;47.754;19.088;2023-03-02T13:58:33;17.15;;;5.13;;
78563;SDS011;67856;47.754;19.088;2023-03-02T14:01:39;14.32;;;4.65;;
78563;SDS011;67856;47.754;19.088;2023-03-02T14:04:45;15.73;;;4.87;;
78563;SDS011;67856;47.754;19.088;2023-03-02T14:07:47;16.33;;;4.33;;
78563;SDS011;67856;47.754;19.088;2023-03-02T14:10:54;21.90;;;5.43;;
78563;SDS011;67856;47.754;19.088;2023-03-02T14:14:02;20.58;;;4.93;;
78563;SDS011;67856;47.754;19.088;2023-03-02T14:17:14;24.15;;;4.72;;
78563;SDS011;67856;47.754;19.088;2023-03-02T14:20:19;20.15;;;4.72;;
78563;SDS011;67856;47.754;19.088;2023-03-02T14:23:31;19.57;;;5.50;;
78563;SDS011;67856;47.754;19.088;2023-03-02T14:26:42;20.70;;;4.70;;
78563;SDS011;67856;47.754;19.088;2023-03-02T14:29:54;15.18;;;4.90;;
78563;SDS011;67856;47.754;19.088;2023-03-02T14:32:56;16.05;;;5.20;;
78563;SDS011;67856;47.754;19.088;2023-03-02T14:35:59;15.77;;;5.07;;
78563;SDS011;67856;47.754;19.088;2023-03-02T14:39:02;16.97;;;4.43;;
78563;SDS011;67856;47.754;19.088;2023-03-02T14:42:10;17.20;;;4.53;;
78563;SDS011;67856;47.754;19.088;2023-03-02T14:45:16;16.02;;;4.40;;
78563;SDS011;67856;47.754;19.088;2023-03-02T14:48:19;14.60;;;4.70;;
78563;SDS011;67856;47.754;19.088;2023-03-02T14:51:25;16.53;;;4.40;;
78563;SDS011;67856;47.754;19.088;2023-03-02T14:54:35;13.97;;;4.30;;
78563;SDS011;67856;47.754;19.088;2023-03-02T14:57:44;16.60;;;4.53;;
78563;SDS011;67856;47.754;19.088;2023-03-02T15:00:48;15.65;;;4.60;;
78563;SDS011;67856;47.754;19.088;2023-03-02T15:03:51;16.83;;;4.90;;
78563;SDS011;67856;47.754;19.088;2023-03-02T15:06:53;12.70;;;4.63;;
78563;SDS011;67856;47.754;19.088;2023-03-02T15:09:56;11.60;;;5.37;;
78563;SDS011;67856;47.754;19.088;2023-03-02T15:12:59;13.23;;;5.30;;
78563;SDS011;67856;47.754;19.088;2023-03-02T15:16:01;24.33;;;5.90;;
78563;SDS011;67856;47.754;19.088;2023-03-02T15:19:04;18.83;;;5.75;;
78563;SDS011;67856;47.754;19.088;2023-03-02T15:22:06;19.00;;;5.80;;
78563;SDS011;67856;47.754;19.088;2023-03-02T15:25:09;19.17;;;5.40;;
78563;SDS011;67856;47.754;19.088;2023-03-02T15:28:11;18.10;;;5.65;;
78563;SDS011;67856;47.754;19.088;2023-03-02T15:31:14;18.65;;;5.85;;
78563;SDS011;67856;47.754;19.088;2023-03-02T15:34:17;15.70;;;5.63;;
78563;SDS011;67856;47.754;19.088;2023-03-02T15:37:20;13.53;;;4.70;;
78563;SDS011;67856;47.754;19.088;2023-03-02T15:40:23;17.80;;;5.50;;
78563;SDS011;67856;47.754;19.088;2023-03-02T15:43:25;20.85;;;5.13;;
78563;SDS011;67856;47.754;19.088;2023-03-02T15:46:28;14.68;;;5.20;;
78563;SDS011;67856;47.754;19.088;2023-03-02T15:49:31;11.93;;;5.13;;
78563;SDS011;67856;47.754;19.088;2023-03-02T15:52:33;16.33;;;4.90;;
78563;SDS011;67856;47.754;19.088;2023-03-02T15:55:38;12.77;;;5.10;;
78563;SDS011;67856;47.754;19.088;2023-03-02T15:58:46;11.52;;;4.80;;
78563;SDS011;67856;47.754;19.088;2023-03-02T16:01:49;13.75;;;5.40;;
78563;SDS011;67856;47.754;19.088;2023-03-02T16:04:51;17.60;;;5.63;;
78563;SDS011;67856;47.754;19.088;2023-03-02T16:07:54;20.57;;;6.27;;
78563;SDS011;67856;47.754;19.088;2023-03-02T16:11:02;15.33;;;5.70;;
78563;SDS011;67856;47.754;19.088;2023-03-02T16:14:05;17.25;;;5.93;;
78563;SDS011;67856;47.754;19.088;2023-03-02T16:17:08;14.60;;;5.60;;
78563;SDS011;67856;47.754;19.088;2023-03-02T16:20:10;14.13;;;5.30;;
78563;SDS011;67856;47.754;19.088;2023-03-02T16:23:13;17.87;;;5.53;;
78563;SDS011;67856;47.754;19.088;2023-03-02T16:26:17;14.73;;;5.17;;
78563;SDS011;67856;47.754;19.088;2023-03-02T16:29:21;22.23;;;6.47;;
78563;SDS011;67856;47.754;19.088;2023-03-02T16:32:25;24.65;;;6.40;;
78563;SDS011;67856;47.754;19.088;2023-03-02T16:35:28;31.33;;;6.93;;
78563;SDS011;67856;47.754;19.088;2023-03-02T16:38:32;26.63;;;6.67;;
78563;SDS011;67856;47.754;19.088;2023-03-02T16:41:35;21.77;;;6.77;;
78563;SDS011;67856;47.754;19.088;2023-03-02T16:44:38;25.45;;;7.25;;
78563;SDS011;67856;47.754;19.088;2023-03-02T16:47:41;24.00;;;7.10;;
78563;SDS011;67856;47.754;19.088;2023-03-02T16:50:43;21.38;;;6.72;;
78563;SDS011;67856;47.754;19.088;2023-03-02T16:53:46;23.10;;;6.50;;
78563;SDS011;67856;47.754;19.088;2023-03-02T16:56:48;25.20;;;6.50;;
78563;SDS011;67856;47.754;19.088;2023-03-02T16:59:51;22.27;;;7.10;;
78563;SDS011;67856;47.754;19.088;2023-03-02T17:02:53;25.63;;;7.32;;
78563;SDS011;67856;47.754;19.088;2023-03-02T17:05:56;26.25;;;7.30;;
78563;SDS011;67856;47.754;19.088;2023-03-02T17:08:58;27.60;;;7.63;;
78563;SDS011;67856;47.754;19.088;2023-03-02T17:12:00;21.60;;;7.00;;
78563;SDS011;67856;47.754;19.088;2023-03-02T17:15:03;27.52;;;7.13;;
78563;SDS011;67856;47.754;19.088;2023-03-02T17:18:06;24.10;;;7.38;;
78563;SDS011;67856;47.754;19.088;2023-03-02T17:21:09;21.60;;;7.40;;
78563;SDS011;67856;47.754;19.088;2023-03-02T17:24:11;21.63;;;7.73;;
78563;SDS011;67856;47.754;19.088;2023-03-02T17:27:14;25.43;;;7.30;;
78563;SDS011;67856;47.754;19.088;2023-03-02T17:30:26;22.27;;;7.68;;
78563;SDS011;67856;47.754;19.088;2023-03-02T17:33:28;23.85;;;7.30;;
78563;SDS011;67856;47.754;19.088;2023-03-02T17:36:31;25.27;;;8.07;;
78563;SDS011;67856;47.754;19.088;2023-03-02T17:39:37;17.47;;;7.03;;
78563;SDS011;67856;47.754;19.088;2023-03-02T17:42:40;26.53;;;8.30;;
78563;SDS011;67856;47.754;19.088;2023-03-02T17:45:42;19.50;;;8.23;;
78563;SDS011;67856;47.754;19.088;2023-03-02T17:48:45;21.27;;;8.10;;
78563;SDS011;67856;47.754;19.088;2023-03-02T17:51:49;20.60;;;8.85;;
78563;SDS011;67856;47.754;19.088;2023-03-02T17:54:51;18.47;;;7.90;;
78563;SDS011;67856;47.754;19.088;2023-03-02T17:57:55;23.07;;;8.97;;
78563;SDS011;67856;47.754;19.088;2023-03-02T18:00:57;19.08;;;8.30;;
78563;SDS011;67856;47.754;19.088;2023-03-02T18:04:00;18.80;;;8.20;;
78563;SDS011;67856;47.754;19.088;2023-03-02T18:07:02;17.00;;;8.25;;
78563;SDS011;67856;47.754;19.088;2023-03-02T18:10:05;18.97;;;7.57;;
78563;SDS011;67856;47.754;19.088;2023-03-02T18:13:08;21.40;;;7.93;;
78563;SDS011;67856;47.754;19.088;2023-03-02T18:16:10;22.23;;;7.57;;
78563;SDS011;67856;47.754;19.088;2023-03-02T18:19:13;18.00;;;7.30;;
78563;SDS011;67856;47.754;19.088;2023-03-02T18:22:15;16.05;;;7.82;;
78563;SDS011;67856;47.754;19.088;2023-03-02T18:25:18;19.37;;;6.73;;
78563;SDS011;67856;47.754;19.088;2023-03-02T18:28:21;13.73;;;7.20;;
78563;SDS011;67856;47.754;19.088;2023-03-02T18:31:23;18.05;;;7.93;;
78563;SDS011;67856;47.754;19.088;2023-03-02T18:34:26;16.85;;;7.68;;
78563;SDS011;67856;47.754;19.088;2023-03-02T18:37:28;18.58;;;9.75;;
78563;SDS011;67856;47.754;19.088;2023-03-02T18:40:31;20.60;;;8.97;;
78563;SDS011;67856;47.754;19.088;2023-03-02T18:43:36;18.30;;;7.93;;
78563;SDS011;67856;47.754;19.088;2023-03-02T18:46:40;18.00;;;8.25;;
78563;SDS011;67856;47.754;19.088;2023-03-02T18:49:43;18.40;;;8.40;;
78563;SDS011;67856;47.754;19.088;2023-03-02T18:52:46;17.67;;;9.63;;
78563;SDS011;67856;47.754;19.088;2023-03-02T18:55:54;22.70;;;10.70;;
78563;SDS011;67856;47.754;19.088;2023-03-02T18:58:57;20.57;;;9.37;;
78563;SDS011;67856;47.754;19.088;2023-03-02T19:01:59;19.98;;;9.88;;
78563;SDS011;67856;47.754;19.088;2023-03-02T19:05:02;16.35;;;8.20;;